Time;durP1;ratioP1;P1;durP2;ratioP2;P2;SDS_P1;SDS_P2;PMS_P1;PMS_P2;Temp;Humidity;BMP_temperature;BMP_pressure;BME280_temperature;BME280_humidity;BME280_pressure;Samples;Min_cycle;Max_cycle;Signal;HPM_P1;HPM_P2
2023/10/20 00:02:04;;;;;;;27.40;20.10;;;;;;;9.54;78.94;99370.42;107980;1255;59468;-71
2023/10/20 00:04:31;;;;;;;22.00;18.50;;;;;;;9.57;79.05;99368.91;107891;1256;72594;-71
2023/10/20 00:06:59;;;;;;;25.50;18.80;;;;;;;9.60;79.00;99374.17;107834;1257;71322;-72
2023/10/20 00:09:28;;;;;;;25.50;19.30;;;;;;;9.63;79.08;99372.08;107939;1257;71407;-71
2023/10/20 00:11:58;;;;;;;25.10;18.90;;;;;;;9.68;79.15;99371.02;107896;1257;60412;-72
2023/10/20 00:14:26;;;;;;;23.80;18.50;;;;;;;9.73;79.18;99372.52;107924;1257;60424;-72
2023/10/20 00:16:54;;;;;;;23.10;18.10;;;;;;;9.78;79.09;99369.86;107962;1257;75949;-73
2023/10/20 00:19:21;;;;;;;25.10;18.50;;;;;;;9.84;79.17;99366.82;107991;1257;71705;-73
2023/10/20 00:21:51;;;;;;;24.00;17.60;;;;;;;9.88;79.00;99362.30;107924;1257;71379;-73
2023/10/20 00:24:19;;;;;;;33.70;19.30;;;;;;;9.91;79.22;99356.68;107991;1257;60460;-73
2023/10/20 00:26:47;;;;;;;39.20;21.80;;;;;;;9.93;79.37;99351.20;107920;1257;60338;-71
2023/10/20 00:29:16;;;;;;;32.30;21.00;;;;;;;9.93;79.18;99348.59;108006;1257;73251;-71
2023/10/20 00:31:54;;;;;;;27.60;18.80;;;;;;;9.92;79.24;99349.45;107975;1256;74815;-71
2023/10/20 00:34:27;;;;;;;24.60;17.60;;;;;;;9.94;79.28;99345.77;107944;1257;72803;-71
2023/10/20 00:36:54;;;;;;;25.60;17.90;;;;;;;9.95;79.31;99350.08;107901;1257;61745;-72
2023/10/20 00:39:23;;;;;;;20.70;16.80;;;;;;;9.94;79.37;99348.70;107802;1257;60405;-72
2023/10/20 00:41:51;;;;;;;21.50;17.00;;;;;;;9.97;79.55;99344.39;107819;1257;73934;-72
2023/10/20 00:44:20;;;;;;;21.20;16.40;;;;;;;10.03;79.56;99342.52;107876;1257;74561;-72
2023/10/20 00:47:25;;;;;;;21.80;17.00;;;;;;;10.04;79.38;99338.52;107955;1257;71615;-72
2023/10/20 00:49:55;;;;;;;22.60;17.30;;;;;;;10.06;79.56;99339.77;107876;1257;60745;-72
2023/10/20 00:52:23;;;;;;;21.00;14.70;;;;;;;10.09;79.53;99335.84;107967;1257;59993;-72
2023/10/20 00:54:52;;;;;;;22.10;16.90;;;;;;;10.09;79.54;99331.50;107848;1257;73265;-72
2023/10/20 00:57:20;;;;;;;23.00;17.60;;;;;;;10.10;79.46;99331.67;107969;1257;74999;-70
2023/10/20 00:59:48;;;;;;;22.40;17.90;;;;;;;10.12;79.43;99329.58;107781;1257;70913;-73
2023/10/20 01:02:16;;;;;;;24.20;17.80;;;;;;;10.13;79.47;99327.47;107906;1257;60577;-73
2023/10/20 01:04:44;;;;;;;21.40;17.20;;;;;;;10.16;79.43;99322.44;107981;1256;60420;-73
2023/10/20 01:07:11;;;;;;;21.90;16.40;;;;;;;10.19;79.48;99322.52;107980;1260;73873;-73
2023/10/20 01:09:42;;;;;;;20.20;16.40;;;;;;;10.22;79.48;99318.57;107919;1257;70610;-74
2023/10/20 01:12:10;;;;;;;20.80;16.50;;;;;;;10.23;79.48;99311.99;107994;1259;75316;-73
2023/10/20 01:14:37;;;;;;;19.80;15.80;;;;;;;10.21;79.41;99313.19;107921;1257;61741;-73
2023/10/20 01:17:05;;;;;;;21.50;17.00;;;;;;;10.18;79.53;99313.33;107927;1256;59396;-74
2023/10/20 01:19:33;;;;;;;21.90;17.10;;;;;;;10.18;79.53;99315.84;107930;1257;76286;-74
2023/10/20 01:22:00;;;;;;;20.90;16.20;;;;;;;10.20;79.67;99312.52;107917;1256;75464;-74
2023/10/20 01:24:29;;;;;;;20.90;16.90;;;;;;;10.21;79.73;99311.06;107844;1257;72687;-73
2023/10/20 01:26:59;;;;;;;20.60;16.60;;;;;;;10.22;79.86;99309.39;107917;1257;60361;-73
2023/10/20 01:29:26;;;;;;;20.70;15.60;;;;;;;10.25;79.88;99307.55;107925;1260;60440;-73
2023/10/20 01:31:54;;;;;;;20.50;15.90;;;;;;;10.26;79.83;99307.98;108029;1257;72561;-73
2023/10/20 01:34:24;;;;;;;18.80;15.40;;;;;;;10.25;79.93;99305.24;107953;1257;72797;-73
2023/10/20 01:36:51;;;;;;;19.00;15.10;;;;;;;10.23;79.95;99301.37;107963;1257;71396;-74
2023/10/20 01:39:19;;;;;;;20.70;16.50;;;;;;;10.17;79.91;99304.00;107890;1257;60390;-73
2023/10/20 01:41:47;;;;;;;20.10;15.30;;;;;;;10.16;80.14;99307.48;107883;1257;60343;-73
2023/10/20 01:44:14;;;;;;;17.80;15.20;;;;;;;10.17;80.15;99305.12;107963;1257;73931;-73
2023/10/20 01:46:49;;;;;;;19.20;15.00;;;;;;;10.20;80.32;99300.67;107937;1257;72705;-74
2023/10/20 01:49:18;;;;;;;18.50;15.20;;;;;;;10.23;80.30;99301.86;107965;1257;71193;-74
2023/10/20 01:51:46;;;;;;;19.20;15.00;;;;;;;10.25;80.41;99297.40;107977;1257;62203;-74
2023/10/20 01:54:13;;;;;;;17.40;13.80;;;;;;;10.27;80.38;99290.52;108016;1257;60332;-73
2023/10/20 01:56:41;;;;;;;19.10;14.80;;;;;;;10.28;80.32;99291.04;107966;1257;73563;-73
2023/10/20 01:59:09;;;;;;;18.80;15.10;;;;;;;10.31;80.53;99289.90;108010;1260;72701;-73
2023/10/20 02:01:38;;;;;;;18.60;14.30;;;;;;;10.35;80.54;99292.15;107980;1256;71852;-74
2023/10/20 02:04:06;;;;;;;18.20;14.40;;;;;;;10.39;80.61;99289.41;107827;1257;60694;-74
2023/10/20 02:06:34;;;;;;;19.40;13.30;;;;;;;10.43;80.58;99281.78;107999;1255;60329;-75
2023/10/20 02:09:02;;;;;;;18.20;14.00;;;;;;;10.45;80.61;99273.20;107875;1255;72651;-74
2023/10/20 02:11:29;;;;;;;18.50;14.50;;;;;;;10.47;80.56;99270.73;107919;1257;72700;-75
2023/10/20 02:13:57;;;;;;;17.90;14.40;;;;;;;10.48;80.71;99276.16;107985;1257;70679;-73
2023/10/20 02:16:25;;;;;;;21.10;15.40;;;;;;;10.50;80.91;99276.08;107952;1257;61832;-73
2023/10/20 02:18:53;;;;;;;21.40;15.40;;;;;;;10.53;80.82;99279.18;107820;1256;60371;-73
2023/10/20 02:21:20;;;;;;;20.00;15.30;;;;;;;10.57;80.81;99280.58;107895;1257;74377;-74
2023/10/20 02:23:48;;;;;;;22.60;16.40;;;;;;;10.58;80.80;99279.07;107881;1256;72543;-73
2023/10/20 02:26:16;;;;;;;22.90;17.30;;;;;;;10.58;80.87;99275.92;107834;1257;73610;-74
2023/10/20 02:28:44;;;;;;;22.60;17.10;;;;;;;10.60;80.96;99267.95;107957;1256;61785;-74
2023/10/20 02:31:17;;;;;;;27.20;21.40;;;;;;;10.62;80.95;99266.20;107828;1257;60344;-73
2023/10/20 02:33:46;;;;;;;22.60;18.10;;;;;;;10.64;81.00;99260.73;107994;1257;72547;-74
2023/10/20 02:36:20;;;;;;;23.30;18.40;;;;;;;10.66;80.97;99261.50;108016;1257;72530;-74
2023/10/20 02:38:52;;;;;;;20.80;16.40;;;;;;;10.69;81.07;99259.58;107882;1261;72460;-74
2023/10/20 02:41:19;;;;;;;21.90;17.30;;;;;;;10.71;81.04;99259.92;107986;1257;60373;-74
2023/10/20 02:43:47;;;;;;;27.60;20.40;;;;;;;10.74;81.08;99256.26;108053;1257;59824;-74
2023/10/20 02:46:16;;;;;;;24.10;18.60;;;;;;;10.79;81.15;99253.46;107967;1257;72643;-74
2023/10/20 02:48:44;;;;;;;20.20;14.40;;;;;;;10.79;81.04;99247.86;108021;1257;72351;-74
2023/10/20 02:51:14;;;;;;;18.00;13.70;;;;;;;10.77;81.09;99245.37;108092;1257;71428;-74
2023/10/20 02:53:42;;;;;;;16.50;12.70;;;;;;;10.74;81.13;99237.90;108061;1256;60505;-74
2023/10/20 02:56:12;;;;;;;15.50;12.40;;;;;;;10.72;81.15;99240.20;108009;1257;60412;-74
2023/10/20 02:58:43;;;;;;;14.00;11.20;;;;;;;10.73;81.36;99236.63;107959;1256;73304;-73
2023/10/20 03:01:15;;;;;;;13.30;10.70;;;;;;;10.75;81.39;99229.48;107983;1257;72693;-75
2023/10/20 03:03:43;;;;;;;14.00;10.60;;;;;;;10.77;81.60;99228.58;107958;1257;70877;-75
2023/10/20 03:06:12;;;;;;;14.20;10.10;;;;;;;10.80;81.58;99223.58;107930;1260;60501;-75
2023/10/20 03:08:39;;;;;;;12.40;10.10;;;;;;;10.82;81.72;99221.27;107988;1256;60792;-74
2023/10/20 03:11:08;;;;;;;14.10;10.40;;;;;;;10.83;81.72;99220.23;108013;1257;73456;-74
2023/10/20 03:13:36;;;;;;;13.50;10.10;;;;;;;10.86;81.76;99218.53;108092;1257;72512;-74
2023/10/20 03:16:05;;;;;;;14.10;9.90;;;;;;;10.89;81.95;99218.59;107986;1257;72725;-75
2023/10/20 03:18:33;;;;;;;14.10;10.30;;;;;;;10.93;81.95;99210.77;107977;1258;61775;-75
2023/10/20 03:21:01;;;;;;;12.60;9.80;;;;;;;10.97;82.02;99212.27;107876;1257;60052;-74
2023/10/20 03:23:30;;;;;;;12.80;9.70;;;;;;;11.00;82.11;99208.78;107945;1257;74102;-75
2023/10/20 03:25:58;;;;;;;10.60;9.20;;;;;;;11.04;82.10;99209.31;107389;1257;665509;-74
2023/10/20 03:28:26;;;;;;;12.70;9.40;;;;;;;11.06;82.06;99203.61;107960;1257;72750;-72
2023/10/20 03:30:54;;;;;;;13.90;9.80;;;;;;;11.10;81.99;99206.06;107957;1257;60639;-75
2023/10/20 03:33:22;;;;;;;13.90;9.20;;;;;;;11.14;82.11;99203.10;107877;1257;60321;-75
2023/10/20 03:36:01;;;;;;;12.20;8.60;;;;;;;11.19;82.20;99201.16;107944;1257;72682;-75
2023/10/20 03:38:29;;;;;;;9.90;8.40;;;;;;;11.21;82.15;99203.14;107952;1257;72962;-75
2023/10/20 03:41:05;;;;;;;11.70;8.70;;;;;;;11.25;82.24;99203.45;107888;1257;71512;-75
2023/10/20 03:43:35;;;;;;;10.50;8.70;;;;;;;11.30;82.26;99205.99;107987;1257;60366;-74
2023/10/20 03:46:04;;;;;;;11.10;8.70;;;;;;;11.33;82.17;99206.15;107924;1255;60427;-75
2023/10/20 03:48:33;;;;;;;11.00;8.80;;;;;;;11.36;82.17;99207.80;107767;1257;72641;-75
2023/10/20 03:51:04;;;;;;;11.70;8.80;;;;;;;11.40;82.25;99200.94;107839;1255;72696;-75
2023/10/20 03:53:52;;;;;;;10.80;8.90;;;;;;;11.43;82.15;99193.70;107931;1257;72469;-75
2023/10/20 03:56:22;;;;;;;11.40;8.50;;;;;;;11.44;82.25;99196.52;107922;1256;63380;-75
2023/10/20 03:58:50;;;;;;;9.20;7.30;;;;;;;11.44;82.21;99199.10;107908;1255;60443;-75
2023/10/20 04:01:18;;;;;;;10.10;8.20;;;;;;;11.45;82.20;99198.98;107776;1257;73803;-75
2023/10/20 04:03:50;;;;;;;10.40;7.70;;;;;;;11.45;82.28;99197.74;107952;1257;74290;-75
2023/10/20 04:06:19;;;;;;;10.00;8.10;;;;;;;11.47;82.41;99193.48;107904;1257;71436;-75
2023/10/20 04:08:47;;;;;;;11.40;8.00;;;;;;;11.50;82.36;99187.50;107941;1258;60313;-75
2023/10/20 04:11:15;;;;;;;9.80;7.40;;;;;;;11.48;82.44;99187.48;107826;1257;60504;-75
2023/10/20 04:13:42;;;;;;;12.00;7.80;;;;;;;11.47;82.54;99184.88;107904;1257;73918;-75
2023/10/20 04:16:15;;;;;;;9.80;7.00;;;;;;;11.46;82.50;99181.01;107934;1257;71454;-74
2023/10/20 04:18:43;;;;;;;10.30;7.20;;;;;;;11.45;82.61;99187.96;108033;1257;71669;-75
2023/10/20 04:21:13;;;;;;;9.20;7.10;;;;;;;11.46;82.75;99192.96;107910;1257;61716;-74
2023/10/20 04:23:43;;;;;;;10.90;7.80;;;;;;;11.52;82.97;99193.48;107961;1257;60335;-74
2023/10/20 04:26:18;;;;;;;10.40;6.90;;;;;;;11.57;82.92;99189.13;107957;1260;73909;-75
2023/10/20 04:56:32;;;;;;;9.80;6.80;;;;;;;11.94;83.07;99189.44;108019;1260;72689;-74
2023/10/20 04:59:10;;;;;;;9.20;6.90;;;;;;;11.96;83.08;99193.42;107972;1260;71414;-73
2023/10/20 05:01:41;;;;;;;9.50;7.10;;;;;;;11.99;83.04;99194.80;107944;1258;64046;-73
2023/10/20 05:04:28;;;;;;;10.40;7.30;;;;;;;11.99;83.18;99191.54;107990;1257;60403;-74
2023/10/20 05:07:05;;;;;;;9.20;6.70;;;;;;;12.00;83.14;99191.10;108022;1257;72872;-73
2023/10/20 05:09:40;;;;;;;7.70;6.70;;;;;;;12.03;83.14;99195.00;107921;1258;71486;-74
2023/10/20 05:12:09;;;;;;;9.30;7.00;;;;;;;12.06;83.25;99192.14;108053;1260;72734;-74
2023/10/20 05:14:36;;;;;;;9.40;6.90;;;;;;;12.10;83.15;99189.22;107950;1258;60234;-73
2023/10/20 05:17:05;;;;;;;10.30;7.30;;;;;;;12.15;83.27;99186.50;107941;1255;60346;-73
2023/10/20 05:19:35;;;;;;;8.60;6.70;;;;;;;12.17;83.31;99183.71;108000;1257;73924;-72
2023/10/20 05:22:04;;;;;;;8.40;6.60;;;;;;;12.17;83.21;99180.34;107959;1260;74916;-71
2023/10/20 05:24:32;;;;;;;9.40;6.70;;;;;;;12.17;83.33;99176.27;107901;1260;71904;-72
2023/10/20 05:27:01;;;;;;;9.50;6.80;;;;;;;12.15;83.20;99176.20;107870;1257;60735;-71
2023/10/20 05:29:29;;;;;;;10.50;6.80;;;;;;;12.17;83.19;99171.52;107971;1260;59249;-70
2023/10/20 05:31:58;;;;;;;8.50;6.30;;;;;;;12.16;83.39;99162.80;107987;1256;73999;-70
2023/10/20 05:34:26;;;;;;;8.20;6.60;;;;;;;12.16;83.25;99155.42;107951;1260;72721;-70
2023/10/20 05:36:54;;;;;;;10.00;6.00;;;;;;;12.16;83.13;99153.66;107923;1258;71624;-71
2023/10/20 05:39:22;;;;;;;10.60;6.50;;;;;;;12.15;83.46;99151.90;107954;1257;60792;-70
2023/10/20 05:41:49;;;;;;;10.30;6.20;;;;;;;12.16;83.48;99151.17;108048;1257;60424;-70
2023/10/20 05:44:22;;;;;;;7.80;6.20;;;;;;;12.17;83.53;99160.64;108002;1257;71692;-70
2023/10/20 05:46:50;;;;;;;9.70;7.10;;;;;;;12.20;83.61;99156.03;108020;1260;72514;-69
2023/10/20 05:49:18;;;;;;;10.90;6.60;;;;;;;12.23;83.71;99152.59;108031;1257;72850;-70
2023/10/20 05:51:46;;;;;;;8.50;6.30;;;;;;;12.24;83.62;99155.19;108077;1260;60412;-69
2023/10/20 05:54:14;;;;;;;9.30;6.40;;;;;;;12.27;83.78;99150.89;107986;1255;60053;-70
2023/10/20 05:56:44;;;;;;;8.30;6.10;;;;;;;12.30;84.00;99147.08;107948;1258;73821;-70
2023/10/20 05:59:15;;;;;;;7.90;5.60;;;;;;;12.33;83.94;99143.78;107967;1257;71275;-70
2023/10/20 06:01:43;;;;;;;9.10;6.60;;;;;;;12.36;84.11;99136.66;107951;1258;72658;-70
2023/10/20 06:04:10;;;;;;;7.40;6.10;;;;;;;12.41;84.17;99130.75;107959;1257;60433;-70
2023/10/20 06:06:39;;;;;;;8.50;6.00;;;;;;;12.47;84.34;99124.93;108295;1257;60488;-71
2023/10/20 06:09:06;;;;;;;9.10;6.40;;;;;;;12.56;84.54;99122.75;107979;1255;71846;-71
2023/10/20 06:11:38;;;;;;;9.60;6.70;;;;;;;12.64;84.60;99121.80;108344;1257;71149;-72
2023/10/20 06:14:07;;;;;;;7.80;5.50;;;;;;;12.73;84.66;99121.80;107987;1269;72699;-70
2023/10/20 06:16:35;;;;;;;8.10;6.10;;;;;;;12.78;84.66;99118.92;107886;1257;60520;-71
2023/10/20 06:19:03;;;;;;;7.50;6.20;;;;;;;12.83;84.79;99120.58;107978;1257;60336;-72
2023/10/20 06:21:31;;;;;;;6.60;5.00;;;;;;;12.88;84.72;99124.34;107957;1257;73965;-72
2023/10/20 06:23:59;;;;;;;8.00;6.40;;;;;;;12.95;84.89;99128.39;107983;1260;71480;-71
2023/10/20 06:26:26;;;;;;;7.20;5.30;;;;;;;13.02;84.91;99130.19;108016;1260;71374;-71
2023/10/20 06:28:54;;;;;;;9.10;5.90;;;;;;;13.09;85.02;99127.86;107976;1260;60703;-72
2023/10/20 06:33:57;;;;;;;9.20;5.60;;;;;;;13.21;84.95;99131.95;107953;1257;73733;-71
2023/10/20 06:36:27;;;;;;;7.00;5.70;;;;;;;13.27;84.86;99141.66;107993;1258;72693;-71
2023/10/20 06:38:54;;;;;;;8.20;6.00;;;;;;;13.35;84.89;99147.48;107980;1260;72430;-71
2023/10/20 06:41:22;;;;;;;6.90;5.60;;;;;;;13.42;84.88;99146.27;107935;1257;60710;-71
2023/10/20 06:43:50;;;;;;;8.70;5.50;;;;;;;13.48;84.79;99142.40;107999;1257;60338;-71
2023/10/20 06:46:21;;;;;;;8.10;5.40;;;;;;;13.51;84.69;99149.70;107968;1258;72654;-71
2023/10/20 06:48:49;;;;;;;10.40;5.90;;;;;;;13.55;84.74;99148.20;108011;1256;70856;-74
2023/10/20 06:51:17;;;;;;;7.30;5.90;;;;;;;13.60;84.58;99140.11;107907;1257;73576;-73
2023/10/20 06:53:44;;;;;;;9.10;5.80;;;;;;;13.66;84.46;99119.61;107900;1257;62863;-72
2023/10/20 06:56:12;;;;;;;7.80;5.50;;;;;;;13.72;84.36;99115.35;107929;1256;60260;-72
2023/10/20 06:58:44;;;;;;;;;;;;;;;13.77;84.39;99116.17;108089;1257;76143;-72
2023/10/20 07:01:12;;;;;;;7.50;5.60;;;;;;;13.82;84.40;99118.66;108054;1257;71584;-72
2023/10/20 07:03:40;;;;;;;8.00;5.60;;;;;;;13.88;84.30;99109.55;107827;1258;71427;-72
2023/10/20 07:06:10;;;;;;;8.00;5.50;;;;;;;13.92;84.18;99115.42;108000;1257;61124;-71
2023/10/20 07:08:39;;;;;;;7.30;5.20;;;;;;;13.94;84.03;99118.42;107975;1257;60477;-70
2023/10/20 07:11:07;;;;;;;9.20;5.20;;;;;;;13.96;83.87;99119.21;107889;1260;73180;-70
2023/10/20 07:13:35;;;;;;;8.20;5.10;;;;;;;13.98;83.77;99126.51;108007;1257;71759;-72
2023/10/20 07:16:02;;;;;;;9.10;5.20;;;;;;;14.01;83.48;99126.93;108016;1260;71705;-71
2023/10/20 07:18:30;;;;;;;8.30;5.50;;;;;;;14.03;83.32;99123.59;108033;1257;60670;-71
2023/10/20 07:20:58;;;;;;;10.20;5.30;;;;;;;14.07;83.28;99125.98;108032;1257;60291;-71
2023/10/20 07:23:26;;;;;;;8.50;5.20;;;;;;;14.12;83.19;99124.75;107842;1258;73502;-71
2023/10/20 07:25:54;;;;;;;6.80;5.20;;;;;;;14.16;83.11;99118.88;107971;1257;72884;-73
2023/10/20 07:28:21;;;;;;;10.60;5.60;;;;;;;14.18;82.80;99108.02;107986;1256;72472;-72
2023/10/20 07:30:50;;;;;;;9.30;5.30;;;;;;;14.19;82.70;99099.75;107923;1257;60804;-73
2023/10/20 07:33:18;;;;;;;8.10;5.20;;;;;;;14.20;82.50;99101.19;108013;1260;60301;-73
2023/10/20 07:35:45;;;;;;;8.40;5.20;;;;;;;14.19;82.23;99101.66;108012;1258;72847;-71
2023/10/20 07:38:13;;;;;;;7.90;4.90;;;;;;;14.17;82.00;99106.19;107836;1257;72620;-73
2023/10/20 07:40:42;;;;;;;8.70;4.90;;;;;;;14.15;81.89;99109.42;107807;1257;74574;-72
2023/10/20 07:43:11;;;;;;;7.70;5.30;;;;;;;14.11;81.69;99116.73;107917;1257;60400;-72
2023/10/20 07:45:42;;;;;;;8.90;5.30;;;;;;;14.06;81.51;99120.73;107934;1258;60201;-72
2023/10/20 07:48:10;;;;;;;7.40;5.10;;;;;;;14.06;81.40;99125.17;108033;1257;74021;-73
2023/10/20 07:50:38;;;;;;;8.00;5.40;;;;;;;14.03;81.28;99128.13;107955;1257;72727;-73
2023/10/20 07:53:11;;;;;;;6.80;5.50;;;;;;;14.01;81.18;99131.31;107910;1257;71479;-73
2023/10/20 07:55:39;;;;;;;8.00;5.30;;;;;;;14.00;81.08;99134.64;107975;1258;61792;-73
2023/10/20 07:58:08;;;;;;;8.70;5.50;;;;;;;14.01;81.02;99134.66;108075;1256;60406;-73
2023/10/20 08:00:37;;;;;;;8.10;5.20;;;;;;;14.03;81.06;99132.34;107963;1255;73939;-72
2023/10/20 08:03:05;;;;;;;7.10;5.30;;;;;;;14.09;81.18;99125.70;108017;1257;73113;-72
2023/10/20 08:05:35;;;;;;;11.70;5.60;;;;;;;14.15;81.15;99133.31;108022;1256;71551;-72
2023/10/20 08:08:04;;;;;;;9.40;5.70;;;;;;;14.20;81.12;99140.14;107959;1257;61107;-71
2023/10/20 08:10:32;;;;;;;11.50;5.90;;;;;;;14.24;81.10;99140.88;107973;1255;60106;-71
2023/10/20 08:13:02;;;;;;;8.80;5.40;;;;;;;14.27;81.01;99139.61;108047;1260;73910;-72
2023/10/20 08:15:29;;;;;;;8.70;5.90;;;;;;;14.26;80.89;99131.73;108117;1258;72693;-71
2023/10/20 08:17:57;;;;;;;10.30;6.00;;;;;;;14.26;80.88;99134.36;107968;1257;71626;-71
2023/10/20 08:20:25;;;;;;;8.70;5.40;;;;;;;14.29;80.78;99133.48;108067;1255;61705;-71
2023/10/20 08:22:53;;;;;;;9.30;5.60;;;;;;;14.31;80.67;99132.12;107940;1255;60339;-71
2023/10/20 08:25:20;;;;;;;7.70;5.80;;;;;;;14.33;80.61;99129.50;107990;1257;72656;-71
2023/10/20 08:27:48;;;;;;;8.80;6.00;;;;;;;14.34;80.63;99128.88;107965;1257;72255;-71
2023/10/20 08:30:16;;;;;;;10.40;6.20;;;;;;;14.35;80.58;99128.05;107910;1257;71385;-71
2023/10/20 08:32:44;;;;;;;8.70;5.70;;;;;;;14.34;80.44;99123.17;107969;1258;60704;-70
2023/10/20 08:35:14;;;;;;;8.30;5.90;;;;;;;14.34;80.52;99109.30;107914;1257;60319;-71
2023/10/20 08:37:41;;;;;;;7.30;5.20;;;;;;;14.34;80.49;99100.77;108244;1257;75026;-70
2023/10/20 08:40:12;;;;;;;8.10;5.60;;;;;;;14.32;80.30;99098.85;107840;1257;72181;-70
2023/10/20 08:42:40;;;;;;;8.70;5.60;;;;;;;14.28;80.38;99097.48;107939;1257;72759;-70
2023/10/20 08:45:11;;;;;;;10.10;6.00;;;;;;;14.28;80.42;99103.30;107881;1260;64624;-70
2023/10/20 08:47:42;;;;;;;9.20;5.60;;;;;;;14.33;80.63;99119.29;107946;1257;60352;-69
2023/10/20 08:50:11;;;;;;;7.30;6.00;;;;;;;14.33;80.44;99144.56;108019;1257;73844;-71
2023/10/20 08:52:40;;;;;;;8.50;5.80;;;;;;;14.31;80.43;99142.56;107982;1257;72767;-71
2023/10/20 08:55:07;;;;;;;8.50;6.40;;;;;;;14.28;80.44;99141.98;107791;1257;72749;-70
2023/10/20 08:57:35;;;;;;;7.60;6.00;;;;;;;14.27;80.56;99139.14;107952;1257;61758;-71
2023/10/20 09:00:03;;;;;;;8.10;6.10;;;;;;;14.29;80.77;99143.09;107982;1256;58994;-71
2023/10/20 09:02:38;;;;;;;9.40;6.40;;;;;;;14.32;80.70;99142.05;107998;1257;74749;-70
2023/10/20 09:05:08;;;;;;;8.00;5.90;;;;;;;14.35;80.77;99139.20;108421;1257;72653;-71
2023/10/20 09:07:36;;;;;;;9.30;6.90;;;;;;;14.39;80.88;99137.84;107915;1257;72662;-72
2023/10/20 09:10:06;;;;;;;8.80;6.10;;;;;;;14.42;80.85;99139.65;107878;1260;60782;-71
2023/10/20 09:12:33;;;;;;;9.40;6.60;;;;;;;14.43;80.73;99138.71;108621;1256;59492;-69
2023/10/20 09:15:01;;;;;;;7.90;6.10;;;;;;;14.45;80.75;99140.71;108071;1257;72660;-71
2023/10/20 09:17:33;;;;;;;9.90;6.90;;;;;;;14.47;80.69;99141.47;108030;1257;73359;-69
2023/10/20 09:20:07;;;;;;;9.70;6.40;;;;;;;14.48;80.72;99137.61;108004;1260;72785;-69
2023/10/20 09:22:36;;;;;;;9.00;6.70;;;;;;;14.49;80.68;99142.80;108063;1256;61743;-69
2023/10/20 09:25:11;;;;;;;9.10;6.30;;;;;;;14.49;80.60;99141.06;107969;1255;60461;-68
2023/10/20 09:27:38;;;;;;;8.50;6.40;;;;;;;14.50;80.72;99135.94;108001;1257;73885;-69
2023/10/20 09:30:10;;;;;;;10.30;6.80;;;;;;;14.51;80.84;99136.24;108049;1257;72947;-69
2023/10/20 09:32:40;;;;;;;8.20;6.30;;;;;;;14.53;80.82;99132.79;108113;1256;72744;-69
2023/10/20 09:35:08;;;;;;;8.20;6.90;;;;;;;14.56;80.92;99136.63;107869;1258;61796;-69
2023/10/20 09:37:38;;;;;;;9.90;6.30;;;;;;;14.62;81.03;99134.82;108015;1257;62811;-69
2023/10/20 09:40:07;;;;;;;9.30;6.50;;;;;;;14.68;81.04;99130.98;107882;1257;74652;-69
2023/10/20 09:43:01;;;;;;;9.70;6.60;;;;;;;14.72;81.10;99131.60;107979;1256;72513;-69
2023/10/20 09:45:47;;;;;;;10.20;7.40;;;;;;;14.76;81.07;99125.05;107843;1256;72883;-69
2023/10/20 09:48:19;;;;;;;12.80;7.60;;;;;;;14.81;81.09;99122.08;107914;1257;61240;-69
2023/10/20 09:50:48;;;;;;;10.40;7.10;;;;;;;14.84;80.96;99124.66;107909;1257;60181;-69
2023/10/20 09:53:20;;;;;;;9.30;7.00;;;;;;;14.85;80.87;99120.02;107778;1258;74487;-68
2023/10/20 09:55:47;;;;;;;11.00;7.50;;;;;;;14.81;80.71;99126.61;107934;1257;73083;-68
2023/10/20 09:58:33;;;;;;;10.00;6.70;;;;;;;14.77;80.60;99129.17;107780;1262;72967;-68
2023/10/20 10:01:03;;;;;;;10.30;7.20;;;;;;;14.77;80.66;99134.77;107958;1256;61808;-68
2023/10/20 10:03:43;;;;;;;9.20;7.30;;;;;;;14.75;80.48;99136.02;107963;1256;61135;-69
2023/10/20 10:06:13;;;;;;;10.50;6.90;;;;;;;14.71;80.41;99131.90;107860;1257;73439;-69
2023/10/20 10:08:43;;;;;;;12.90;7.00;;;;;;;14.66;80.44;99132.53;107884;1257;72421;-69
2023/10/20 10:11:28;;;;;;;13.60;7.00;;;;;;;14.61;80.49;99130.06;107881;1257;72999;-69
2023/10/20 10:14:01;;;;;;;10.60;6.40;;;;;;;14.60;80.52;99130.23;107852;1257;61935;-69
2023/10/20 10:16:28;;;;;;;13.40;6.60;;;;;;;14.60;80.63;99130.16;108014;1256;61151;-69
2023/10/20 10:19:09;;;;;;;8.50;6.70;;;;;;;14.62;80.70;99122.96;107779;1256;74648;-69
2023/10/20 10:21:42;;;;;;;10.50;7.30;;;;;;;14.64;80.66;99124.73;107959;1260;72369;-69
2023/10/20 10:24:17;;;;;;;10.20;6.60;;;;;;;14.65;80.73;99118.89;107973;1257;72776;-69
2023/10/20 10:26:59;;;;;;;10.60;6.70;;;;;;;14.67;80.64;99118.17;107946;1256;62263;-69
2023/10/20 10:29:59;;;;;;;9.40;6.60;;;;;;;14.68;80.73;99123.45;107922;1257;61244;-69
2023/10/20 10:32:31;;;;;;;9.90;7.10;;;;;;;14.68;80.79;99127.16;108074;1257;74587;-69
2023/10/20 10:35:01;;;;;;;10.70;7.10;;;;;;;14.68;80.71;99128.92;107978;1256;73244;-69
2023/10/20 10:37:36;;;;;;;10.10;6.40;;;;;;;14.69;80.79;99131.73;107980;1260;73325;-69
2023/10/20 10:40:13;;;;;;;9.50;6.40;;;;;;;14.70;80.84;99131.77;107997;1256;61224;-69
2023/10/20 10:42:49;;;;;;;10.80;6.80;;;;;;;14.71;80.88;99126.91;107953;1257;61135;-69
2023/10/20 10:45:27;;;;;;;11.30;7.40;;;;;;;14.72;80.93;99118.49;107941;1257;74583;-69
2023/10/20 10:48:09;;;;;;;10.80;7.30;;;;;;;14.74;80.89;99123.35;107997;1257;72815;-69
2023/10/20 10:50:44;;;;;;;9.80;6.80;;;;;;;14.76;80.90;99131.34;107977;1256;71279;-69
2023/10/20 10:53:21;;;;;;;9.50;6.70;;;;;;;14.78;80.87;99136.95;108147;1257;61141;-69
2023/10/20 10:55:57;;;;;;;10.50;7.20;;;;;;;14.76;80.81;99144.47;107975;1260;59497;-69
2023/10/20 10:58:34;;;;;;;11.30;6.90;;;;;;;14.76;80.87;99145.45;107820;1256;73885;-70
2023/10/20 11:01:03;;;;;;;8.00;6.10;;;;;;;14.76;80.93;99145.77;107908;1257;74073;-69
2023/10/20 11:03:50;;;;;;;11.50;6.80;;;;;;;14.77;80.94;99140.23;107956;1256;72481;-69
2023/10/20 11:06:38;;;;;;;9.60;6.40;;;;;;;14.81;80.87;99139.76;107868;1256;61372;-70
2023/10/20 11:09:30;;;;;;;9.50;6.80;;;;;;;14.85;80.86;99142.69;108011;1256;62611;-69
2023/10/20 11:12:20;;;;;;;12.10;7.00;;;;;;;14.93;80.68;99138.44;107773;1257;76540;-69
2023/10/20 11:15:08;;;;;;;10.10;6.90;;;;;;;14.98;80.62;99131.04;107997;1257;72165;-70
2023/10/20 11:18:06;;;;;;;8.90;6.50;;;;;;;15.03;80.53;99131.85;107808;1257;72677;-69
2023/10/20 11:20:49;;;;;;;11.70;6.80;;;;;;;15.11;80.65;99121.16;107750;1257;61693;-70
2023/10/20 11:23:39;;;;;;;12.10;6.60;;;;;;;15.18;80.59;99114.84;107922;1257;61195;-68
2023/10/20 11:26:35;;;;;;;10.10;6.60;;;;;;;15.26;80.61;99111.55;107921;1256;73583;-68
2023/10/20 11:29:22;;;;;;;11.30;6.60;;;;;;;15.35;80.64;99114.08;107943;1256;74372;-69
2023/10/20 11:32:10;;;;;;;9.80;7.20;;;;;;;15.41;80.44;99112.08;107971;1256;70728;-68
2023/10/20 11:35:05;;;;;;;9.00;6.40;;;;;;;15.45;80.40;99111.81;108039;1257;61112;-70
2023/10/20 11:38:03;;;;;;;10.40;6.20;;;;;;;15.53;80.38;99112.32;107944;1255;61108;-69
2023/10/20 11:41:07;;;;;;;8.60;6.50;;;;;;;15.59;80.25;99115.56;107945;1256;74798;-70
2023/10/20 11:43:54;;;;;;;9.50;6.80;;;;;;;15.64;80.08;99118.29;107875;1256;74623;-70
2023/10/20 11:46:30;;;;;;;8.50;6.80;;;;;;;15.70;80.01;99110.63;108019;1257;73617;-70
2023/10/20 11:48:57;;;;;;;9.50;7.20;;;;;;;15.78;79.93;99109.23;107985;1257;61811;-70
2023/10/20 11:51:25;;;;;;;10.10;7.30;;;;;;;15.82;79.62;99111.38;108084;1256;61148;-70
2023/10/20 11:53:52;;;;;;;13.30;7.80;;;;;;;15.81;79.27;99114.12;107936;1256;74678;-70
2023/10/20 11:56:20;;;;;;;10.60;7.30;;;;;;;15.81;79.12;99123.95;107915;1255;74605;-70
2023/10/20 11:58:48;;;;;;;11.70;8.00;;;;;;;15.79;78.93;99126.27;107927;1257;72796;-70
2023/10/20 12:01:15;;;;;;;10.20;7.30;;;;;;;15.78;78.84;99129.67;108019;1257;61166;-69
2023/10/20 12:03:44;;;;;;;10.40;7.00;;;;;;;15.79;78.81;99135.50;107953;1256;61250;-70
2023/10/20 12:06:12;;;;;;;10.70;7.50;;;;;;;15.84;78.89;99133.55;107839;1256;74771;-69
2023/10/20 12:08:41;;;;;;;12.00;7.60;;;;;;;15.88;78.73;99130.54;107857;1257;72938;-69